createdAt,value
2022-07-30T00:01:35.661Z,2.92
2022-07-30T00:04:03.025Z,3.78
2022-07-30T00:06:29.812Z,3.35
2022-07-30T00:08:56.373Z,3.67
2022-07-30T00:11:27.317Z,3.42
2022-07-30T00:13:54.500Z,3.47
2022-07-30T00:16:21.090Z,3.20
2022-07-30T00:18:47.667Z,3.75
2022-07-30T00:21:20.277Z,3.47
2022-07-30T00:24:02.299Z,4.50
2022-07-30T00:26:29.125Z,3.88
2022-07-30T00:28:56.616Z,4.05
2022-07-30T00:31:23.172Z,3.47
2022-07-30T00:33:49.748Z,3.63
2022-07-30T00:36:16.254Z,3.40
2022-07-30T00:38:43.204Z,3.78
2022-07-30T00:41:09.768Z,3.20
2022-07-30T00:43:36.318Z,3.83
2022-07-30T00:46:02.924Z,3.67
2022-07-30T00:48:29.474Z,3.80
2022-07-30T00:50:55.993Z,3.58
2022-07-30T00:53:23.900Z,2.80
2022-07-30T00:55:50.439Z,3.30
2022-07-30T00:58:16.988Z,2.65
2022-07-30T01:00:43.602Z,2.28
2022-07-30T01:03:10.168Z,3.22
2022-07-30T01:05:36.719Z,2.80
2022-07-30T01:10:38.662Z,2.70
2022-07-30T01:13:05.724Z,3.03
2022-07-30T01:15:32.326Z,3.13
2022-07-30T01:18:00.488Z,3.08
2022-07-30T01:20:31.247Z,3.15
2022-07-30T01:23:16.470Z,2.83
2022-07-30T01:26:01.954Z,2.70
2022-07-30T01:28:33.650Z,2.95
2022-07-30T01:31:00.613Z,2.45
2022-07-30T01:33:27.969Z,2.72
2022-07-30T01:35:55.958Z,3.17
2022-07-30T01:38:31.251Z,3.33
2022-07-30T01:41:02.432Z,2.90
2022-07-30T01:43:31.065Z,3.05
2022-07-30T01:45:58.772Z,2.08
2022-07-30T01:48:25.658Z,2.67
2022-07-30T01:50:54.978Z,2.92
2022-07-30T01:53:23.968Z,3.22
2022-07-30T01:55:50.741Z,2.78
2022-07-30T01:58:19.741Z,2.17
2022-07-30T02:03:40.366Z,2.58
2022-07-30T02:06:14.461Z,2.13
2022-07-30T02:08:43.656Z,2.30
2022-07-30T02:11:12.257Z,2.25
2022-07-30T02:13:43.794Z,2.35
2022-07-30T02:16:26.624Z,2.10
2022-07-30T02:18:58.615Z,2.17
2022-07-30T02:21:36.422Z,2.20
2022-07-30T02:24:06.237Z,2.08
2022-07-30T02:26:33.162Z,2.70
2022-07-30T02:29:00.988Z,2.90
2022-07-30T02:31:28.653Z,2.20
2022-07-30T02:33:56.933Z,2.28
2022-07-30T02:36:24.301Z,2.80
2022-07-30T02:38:51.963Z,2.50
2022-07-30T02:41:24.168Z,2.72
2022-07-30T02:43:51.856Z,2.83
2022-07-30T02:46:18.917Z,2.67
2022-07-30T02:48:46.946Z,2.60
2022-07-30T02:51:15.973Z,2.92
2022-07-30T02:53:45.400Z,2.33
2022-07-30T02:56:12.787Z,2.58
2022-07-30T02:58:40.307Z,2.80
2022-07-30T03:01:07.492Z,3.20
2022-07-30T03:03:34.447Z,3.35
2022-07-30T03:06:02.576Z,3.25
2022-07-30T03:08:31.201Z,2.63
2022-07-30T03:10:58.006Z,2.97
2022-07-30T03:13:25.713Z,3.03
2022-07-30T03:15:53.169Z,2.50
2022-07-30T03:18:20.404Z,2.80
2022-07-30T03:20:48.868Z,2.83
2022-07-30T03:23:16.887Z,2.78
2022-07-30T11:24:47.025Z,0.55
2022-07-30T11:27:36.177Z,0.45
2022-07-30T11:30:03.714Z,0.40
2022-07-30T11:32:32.130Z,0.40
2022-07-30T11:35:12.412Z,0.40
2022-07-30T11:37:56.411Z,0.20
2022-07-30T11:40:26.596Z,0.28
2022-07-30T11:43:13.288Z,0.40
2022-07-30T11:45:39.831Z,0.50
2022-07-30T11:48:09.871Z,0.30
2022-07-30T11:50:36.484Z,0.30
2022-07-30T11:53:04.947Z,0.32
2022-07-30T11:55:36.901Z,0.40
2022-07-30T11:58:04.805Z,0.30
2022-07-30T12:00:49.235Z,0.38
2022-07-30T12:03:16.918Z,0.30
2022-07-30T12:05:44.049Z,0.20
2022-07-30T12:08:33.498Z,0.52
2022-07-30T12:11:00.480Z,0.40
2022-07-30T12:13:45.533Z,0.30
2022-07-30T12:16:18.839Z,0.40
2022-07-30T12:18:46.051Z,0.40
2022-07-30T12:21:13.763Z,0.40
2022-07-30T12:23:43.377Z,0.30
2022-07-30T14:26:06.820Z,1.38
2022-07-30T14:28:33.321Z,1.30
2022-07-30T14:30:59.820Z,1.08
2022-07-30T14:33:26.716Z,1.08
2022-07-30T14:35:53.255Z,1.00
2022-07-30T14:38:19.776Z,1.30
2022-07-30T14:40:46.898Z,1.42
2022-07-30T14:43:14.756Z,1.35
2022-07-30T14:45:41.256Z,1.30
2022-07-30T14:48:07.774Z,1.52
2022-07-30T14:50:42.749Z,1.52
2022-07-30T14:53:22.501Z,1.50
2022-07-30T14:55:49.235Z,1.13
2022-07-30T14:58:15.723Z,1.25
2022-07-30T15:00:48.336Z,1.52
2022-07-30T15:03:15.588Z,1.10
2022-07-30T15:05:42.083Z,1.20
2022-07-30T15:08:08.634Z,1.13
2022-07-30T15:10:35.209Z,1.38
2022-07-30T15:13:01.696Z,1.08
2022-07-30T15:15:28.465Z,1.08
2022-07-30T15:17:59.323Z,1.10
2022-07-30T15:20:25.827Z,1.20
2022-07-30T15:22:52.487Z,1.05
2022-07-30T15:25:19.256Z,1.25
2022-07-30T15:27:45.720Z,1.00
2022-07-30T15:30:12.470Z,1.65
2022-07-30T15:32:38.996Z,0.90
2022-07-30T15:35:08.396Z,1.10
2022-07-30T15:37:37.300Z,1.27
2022-07-30T15:40:04.063Z,1.27
2022-07-30T15:42:31.378Z,1.20
2022-07-30T15:45:16.163Z,1.02
2022-07-30T15:47:43.520Z,1.48
2022-07-30T15:50:10.155Z,1.50
2022-07-30T15:52:37.082Z,1.70
2022-07-30T15:55:04.490Z,1.45
2022-07-30T15:57:31.747Z,1.50
2022-07-30T15:59:58.609Z,1.23
2022-07-30T16:02:25.195Z,1.50
2022-07-30T16:04:51.668Z,1.20
2022-07-30T16:07:19.321Z,1.10
2022-07-30T16:09:45.807Z,1.25
2022-07-30T16:12:12.382Z,1.35
2022-07-30T16:14:38.895Z,1.35
2022-07-30T16:17:10.471Z,1.05
2022-07-30T16:19:40.654Z,1.20
2022-07-30T16:22:11.446Z,1.10
2022-07-30T16:24:37.941Z,1.30
2022-07-30T16:27:04.610Z,1.15
2022-07-30T16:29:31.144Z,1.35
2022-07-30T16:31:57.662Z,1.50
2022-07-30T16:34:26.801Z,1.08
2022-07-30T16:36:53.445Z,1.33
2022-07-30T16:39:20.127Z,1.20
2022-07-30T16:41:46.650Z,0.85
2022-07-30T16:44:13.153Z,0.70
2022-07-30T16:46:39.698Z,0.75
2022-07-30T16:49:06.225Z,0.80
2022-07-30T16:51:32.793Z,0.63
2022-07-30T16:53:59.324Z,0.93
2022-07-30T16:56:25.829Z,1.45
2022-07-30T16:58:52.346Z,0.90
2022-07-30T17:01:19.029Z,1.73
2022-07-30T17:03:45.532Z,1.00
2022-07-30T17:06:12.106Z,1.38
2022-07-30T17:08:38.588Z,1.48
2022-07-30T17:11:09.326Z,0.98
2022-07-30T17:13:37.632Z,0.93
2022-07-30T17:16:04.334Z,1.00
2022-07-30T17:18:30.816Z,1.77
2022-07-30T17:20:57.395Z,1.85
2022-07-30T17:23:23.965Z,1.80
2022-07-30T19:29:31.423Z,2.17
2022-07-30T19:31:57.961Z,3.70
2022-07-30T19:34:24.495Z,3.67
2022-07-30T19:36:51.029Z,3.15
2022-07-30T19:39:21.175Z,2.60
2022-07-30T19:41:51.051Z,3.30
2022-07-30T19:44:18.722Z,2.53
2022-07-30T19:46:46.839Z,5.30
2022-07-30T19:49:15.370Z,2.97
2022-07-30T19:52:10.228Z,2.67
2022-07-30T19:54:28.569Z,2.22
2022-07-30T19:56:55.099Z,2.33
2022-07-30T19:59:45.829Z,2.53
2022-07-30T20:02:08.515Z,2.53
2022-07-30T20:04:36.519Z,2.20
2022-07-30T20:07:03.018Z,1.85
2022-07-30T20:09:30.923Z,1.85
2022-07-30T20:11:59.172Z,1.95
2022-07-30T20:14:25.899Z,1.80
2022-07-30T20:16:52.792Z,2.00
2022-07-30T20:19:20.168Z,2.03
2022-07-30T20:21:56.827Z,2.10
2022-07-30T20:24:24.478Z,2.42
2022-07-30T20:26:52.224Z,2.53
2022-07-30T20:29:19.194Z,2.08
2022-07-30T20:31:49.557Z,2.50
2022-07-30T20:34:18.192Z,2.25
2022-07-30T20:36:44.911Z,1.90
2022-07-30T20:39:13.533Z,2.38
2022-07-30T20:41:45.318Z,2.55
2022-07-30T20:44:23.575Z,2.33
2022-07-30T20:46:50.711Z,2.45
2022-07-30T20:49:23.622Z,2.70
2022-07-30T20:51:51.859Z,2.83
2022-07-30T20:54:20.418Z,3.38
2022-07-30T20:56:47.460Z,3.33
2022-07-30T20:59:14.142Z,3.30
2022-07-30T21:01:41.126Z,3.08
2022-07-30T21:04:08.218Z,3.67
2022-07-30T21:06:39.839Z,3.67
2022-07-30T21:09:06.532Z,4.55
2022-07-30T21:11:35.919Z,4.13
2022-07-30T21:14:02.520Z,4.43
2022-07-30T21:16:30.681Z,3.13
2022-07-30T21:18:57.263Z,4.05
2022-07-30T21:21:30.616Z,5.05
2022-07-30T21:24:05.234Z,3.90
2022-07-30T21:26:31.852Z,3.65
2022-07-30T21:29:00.843Z,3.88
2022-07-30T21:31:57.788Z,3.97
2022-07-30T21:34:14.156Z,3.17
2022-07-30T21:36:41.970Z,4.57
2022-07-30T21:39:08.472Z,3.60
2022-07-30T21:41:40.067Z,3.92
2022-07-30T21:44:07.856Z,3.30
2022-07-30T21:46:34.444Z,3.20
2022-07-30T21:49:01.000Z,3.67
2022-07-30T21:51:28.149Z,3.63
2022-07-30T21:53:54.995Z,3.08
2022-07-30T21:56:24.441Z,2.95
2022-07-30T21:58:51.653Z,3.67
2022-07-30T22:01:22.640Z,3.30
2022-07-30T22:04:03.169Z,3.10
2022-07-30T22:06:35.418Z,2.97
2022-07-30T22:09:08.581Z,3.28
2022-07-30T22:11:45.407Z,3.60
2022-07-30T22:14:13.169Z,2.70
2022-07-30T22:16:45.853Z,2.55
2022-07-30T22:19:14.262Z,2.05
2022-07-30T22:21:41.236Z,1.63
2022-07-30T22:24:07.964Z,2.08
2022-07-30T22:26:34.485Z,1.88
2022-07-30T22:29:01.229Z,2.38
2022-07-30T22:31:39.329Z,3.33
2022-07-30T22:34:06.164Z,2.20
2022-07-30T22:36:38.199Z,1.90
2022-07-30T22:39:05.184Z,2.10
2022-07-30T22:41:35.578Z,2.30
2022-07-30T22:44:02.152Z,2.15
2022-07-30T22:46:31.004Z,2.22
2022-07-30T22:48:58.074Z,2.45
2022-07-30T22:51:26.125Z,2.05
2022-07-30T22:54:13.408Z,2.28
2022-07-30T22:56:40.268Z,2.28
2022-07-30T22:59:06.865Z,1.38
2022-07-30T23:01:33.820Z,2.80
2022-07-30T23:04:01.367Z,2.60
2022-07-30T23:06:28.188Z,2.10
2022-07-30T23:08:56.600Z,1.88
2022-07-30T23:11:23.205Z,2.13
2022-07-30T23:13:49.817Z,2.10
2022-07-30T23:16:16.375Z,2.05
2022-07-30T23:18:42.876Z,2.53
2022-07-30T23:21:10.040Z,1.85
2022-07-30T23:23:36.559Z,1.90
2022-07-30T23:26:03.978Z,1.85
2022-07-30T23:28:30.547Z,1.70
2022-07-30T23:30:57.132Z,1.92
2022-07-30T23:33:23.647Z,2.40
2022-07-30T23:35:50.121Z,2.15
2022-07-30T23:38:16.792Z,1.38
2022-07-30T23:40:43.295Z,1.45
2022-07-30T23:43:09.794Z,1.50
2022-07-30T23:45:36.323Z,1.55
2022-07-30T23:48:03.587Z,1.75
2022-07-30T23:50:31.333Z,1.30
2022-07-30T23:52:57.903Z,2.20
2022-07-30T23:55:24.519Z,1.75
2022-07-30T23:57:51.047Z,2.10
